createdAt,value
2018-04-29T00:00:10.882Z,5.6
2018-04-29T00:01:13.318Z,5.6
2018-04-29T00:02:15.756Z,5.6
2018-04-29T00:03:18.209Z,5.8
2018-04-29T00:04:20.922Z,5.5
2018-04-29T00:05:23.373Z,5.6
2018-04-29T00:06:26.091Z,5.6
2018-04-29T00:07:28.522Z,5.6
2018-04-29T00:08:31.357Z,5.6
2018-04-29T00:09:34.368Z,5.6
2018-04-29T00:10:37.111Z,5.5
2018-04-29T00:11:39.830Z,5.7
2018-04-29T00:12:42.272Z,5.6
2018-04-29T00:13:44.992Z,5.5
2018-04-29T00:14:47.723Z,5.5
2018-04-29T00:15:50.156Z,5.7
2018-04-29T00:16:52.601Z,5.5
2018-04-29T00:17:55.035Z,5.5
2018-04-29T00:18:58.056Z,5.6
2018-04-29T00:20:00.516Z,5.7
2018-04-29T00:21:02.953Z,5.6
2018-04-29T00:22:05.389Z,5.7
2018-04-29T00:23:07.825Z,5.7
2018-04-29T00:24:10.270Z,5.6
2018-04-29T00:25:12.707Z,5.6
2018-04-29T00:26:15.151Z,5.5
2018-04-29T00:27:17.864Z,5.5
2018-04-29T00:28:20.298Z,5.7
2018-04-29T00:29:22.751Z,5.7
2018-04-29T00:30:25.544Z,5.6
2018-04-29T00:31:27.979Z,5.6
2018-04-29T00:32:30.418Z,5.5
2018-04-29T00:33:33.539Z,5.5
2018-04-29T00:34:35.986Z,5.6
2018-04-29T00:35:38.712Z,5.5
2018-04-29T00:36:41.547Z,5.5
2018-04-29T00:37:44.039Z,5.7
2018-04-29T00:38:46.435Z,5.5
2018-04-29T00:39:49.476Z,5.7
2018-04-29T00:40:52.214Z,5.6
2018-04-29T00:41:54.650Z,5.5
2018-04-29T00:42:57.087Z,5.5
2018-04-29T00:43:59.516Z,5.5
2018-04-29T00:45:01.963Z,5.6
2018-04-29T00:46:04.400Z,5.5
2018-04-29T00:47:06.848Z,5.7
2018-04-29T00:48:09.285Z,5.6
2018-04-29T00:49:11.731Z,5.6
2018-04-29T00:50:14.450Z,5.6
2018-04-29T00:51:17.288Z,5.6
2018-04-29T00:52:19.729Z,5.6
2018-04-29T00:53:22.150Z,5.7
2018-04-29T00:54:24.603Z,5.6
2018-04-29T00:55:27.035Z,5.6
2018-04-29T00:56:29.471Z,5.5
2018-04-29T00:57:31.906Z,5.6
2018-04-29T00:58:34.347Z,5.5
2018-04-29T00:59:36.782Z,5.5
2018-04-29T01:00:39.235Z,5.5
2018-04-29T01:01:42.061Z,5.6
2018-04-29T01:02:44.784Z,5.5
2018-04-29T01:03:47.902Z,5.5
2018-04-29T01:04:50.349Z,5.7
2018-04-29T01:05:53.083Z,5.4
2018-04-29T01:06:55.804Z,5.7
2018-04-29T01:07:58.250Z,5.6
2018-04-29T01:09:00.671Z,5.6
2018-04-29T01:10:03.115Z,5.6
2018-04-29T01:11:05.549Z,5.6
2018-04-29T01:12:07.994Z,5.5
2018-04-29T01:13:10.433Z,5.6
2018-04-29T01:14:12.883Z,5.5
2018-04-29T01:15:15.311Z,5.6
2018-04-29T01:16:18.154Z,5.6
2018-04-29T01:17:20.866Z,5.7
2018-04-29T01:18:23.311Z,5.6
2018-04-29T01:19:26.069Z,5.6
2018-04-29T01:20:28.501Z,5.6
2018-04-29T01:21:31.229Z,5.5
2018-04-29T01:22:33.665Z,5.5
2018-04-29T01:23:36.110Z,5.6
2018-04-29T01:24:38.556Z,5.6
2018-04-29T01:25:40.988Z,5.6
2018-04-29T01:26:43.426Z,5.6
2018-04-29T01:27:46.152Z,5.6
2018-04-29T01:28:49.271Z,5.6
2018-04-29T01:29:51.711Z,5.7
2018-04-29T01:30:54.148Z,5.6
2018-04-29T01:31:56.878Z,5.6
2018-04-29T01:32:59.325Z,5.5
2018-04-29T01:34:01.751Z,5.6
2018-04-29T01:35:04.195Z,5.6
2018-04-29T01:36:06.630Z,5.6
2018-04-29T01:37:09.063Z,5.7
2018-04-29T01:38:11.508Z,5.6
2018-04-29T01:39:13.942Z,5.7
2018-04-29T01:40:16.377Z,5.5
2018-04-29T01:41:18.836Z,5.6
2018-04-29T01:42:21.266Z,5.6
2018-04-29T01:43:23.704Z,5.6
2018-04-29T01:44:26.447Z,5.5
2018-04-29T01:45:28.878Z,5.6
2018-04-29T01:46:31.319Z,5.7
2018-04-29T01:47:33.767Z,5.6
2018-04-29T01:48:36.492Z,5.6
2018-04-29T01:49:38.929Z,5.6
2018-04-29T01:50:41.374Z,5.6
2018-04-29T01:51:44.271Z,5.7
2018-04-29T01:52:46.650Z,5.7
2018-04-29T01:53:49.479Z,5.6
2018-04-29T01:54:51.913Z,5.7
2018-04-29T01:55:54.638Z,5.6
2018-04-29T01:56:57.085Z,5.5
2018-04-29T01:57:59.518Z,5.5
2018-04-29T01:59:01.968Z,5.5
2018-04-29T02:00:04.715Z,5.6
2018-04-29T02:01:07.149Z,5.7
2018-04-29T02:02:09.583Z,5.6
2018-04-29T02:03:12.316Z,5.7
2018-04-29T02:04:14.755Z,5.6
2018-04-29T02:05:17.487Z,5.5
2018-04-29T02:06:19.914Z,5.5
2018-04-29T02:07:22.760Z,5.6
2018-04-29T02:08:25.195Z,5.6
2018-04-29T02:09:27.644Z,5.5
2018-04-29T02:10:30.077Z,5.7
2018-04-29T02:11:32.809Z,5.7
2018-04-29T02:12:35.245Z,5.7
2018-04-29T02:13:37.690Z,5.7
2018-04-29T02:14:40.126Z,5.7
2018-04-29T02:15:42.877Z,5.6
2018-04-29T02:16:45.309Z,5.6
2018-04-29T02:17:48.429Z,5.6
2018-04-29T02:18:51.153Z,5.7
2018-04-29T02:19:53.594Z,5.7
2018-04-29T02:20:56.306Z,5.7
2018-04-29T02:21:58.749Z,5.7
2018-04-29T02:23:01.457Z,5.6
2018-04-29T02:24:04.226Z,5.6
2018-04-29T02:25:06.659Z,5.5
2018-04-29T02:26:09.099Z,5.6
2018-04-29T02:27:11.545Z,5.6
2018-04-29T02:28:13.984Z,5.6
2018-04-29T02:29:16.423Z,5.6
2018-04-29T02:30:18.865Z,5.7
2018-04-29T02:31:21.328Z,5.6
2018-04-29T02:32:24.596Z,5.7
2018-04-29T02:33:27.031Z,5.6
2018-04-29T02:34:30.466Z,5.6
2018-04-29T02:35:33.214Z,5.6
2018-04-29T02:36:36.038Z,5.6
2018-04-29T02:37:38.867Z,5.6
2018-04-29T02:38:41.305Z,5.5
2018-04-29T02:39:44.029Z,5.5
2018-04-29T02:40:47.069Z,5.5
2018-04-29T02:41:49.508Z,5.6
2018-04-29T02:42:52.234Z,5.5
2018-04-29T02:43:54.660Z,5.6
2018-04-29T02:44:57.104Z,5.6
2018-04-29T02:45:59.548Z,5.6
2018-04-29T02:47:02.005Z,5.6
2018-04-29T02:48:04.716Z,5.6
2018-04-29T02:49:07.454Z,5.9
2018-04-29T02:50:09.905Z,5.5
2018-04-29T02:51:12.731Z,5.5
2018-04-29T02:52:15.471Z,5.5
2018-04-29T02:53:18.204Z,5.6
2018-04-29T02:54:21.026Z,5.6
2018-04-29T02:55:23.864Z,5.5
2018-04-29T02:56:26.688Z,5.5
2018-04-29T02:57:29.408Z,5.5
2018-04-29T02:58:31.853Z,5.6
2018-04-29T02:59:34.593Z,5.6
2018-04-29T03:00:37.414Z,5.6
2018-04-29T03:01:40.144Z,5.9
2018-04-29T03:02:42.873Z,5.5
2018-04-29T03:03:46.288Z,5.5
2018-04-29T03:04:49.007Z,5.7
2018-04-29T03:05:51.453Z,5.7
2018-04-29T03:06:54.199Z,5.6
2018-04-29T03:07:57.205Z,5.6
2018-04-29T03:08:59.638Z,5.6
2018-04-29T03:10:02.369Z,5.5
2018-04-29T03:11:05.379Z,5.6
2018-04-29T03:12:08.113Z,5.6
2018-04-29T03:13:10.848Z,5.5
2018-04-29T03:14:13.959Z,5.6
2018-04-29T03:15:16.412Z,5.5
2018-04-29T03:16:19.431Z,5.5
2018-04-29T03:17:21.857Z,5.6
2018-04-29T03:18:24.658Z,5.6
2018-04-29T03:19:27.021Z,5.5
2018-04-29T03:20:29.460Z,5.6
2018-04-29T03:21:31.916Z,5.6
2018-04-29T03:22:34.351Z,5.6
2018-04-29T03:23:36.784Z,5.6
2018-04-29T03:24:39.233Z,5.6
2018-04-29T03:25:41.666Z,5.6
2018-04-29T03:26:44.106Z,5.5
2018-04-29T03:27:46.547Z,5.5
2018-04-29T03:28:48.973Z,5.6
2018-04-29T03:29:51.414Z,5.7
2018-04-29T03:30:53.861Z,5.5
2018-04-29T03:31:56.301Z,5.6
2018-04-29T03:32:58.741Z,5.6
2018-04-29T03:34:01.492Z,5.5
2018-04-29T03:35:03.942Z,5.6
2018-04-29T03:36:06.377Z,5.7
2018-04-29T03:37:08.843Z,5.7
2018-04-29T03:38:11.240Z,5.7
2018-04-29T03:39:13.681Z,5.5
2018-04-29T03:40:16.127Z,5.5
2018-04-29T03:41:18.563Z,5.5
2018-04-29T03:42:20.999Z,5.6
2018-04-29T03:43:23.443Z,5.6
2018-04-29T03:44:26.261Z,5.6
2018-04-29T03:45:28.997Z,5.7
2018-04-29T03:46:31.421Z,5.6
2018-04-29T03:47:34.153Z,5.5
2018-04-29T03:48:36.595Z,5.6
2018-04-29T03:49:39.313Z,5.5
2018-04-29T03:50:41.757Z,5.5
2018-04-29T03:51:44.485Z,5.8
2018-04-29T03:52:46.918Z,5.5
2018-04-29T03:53:49.654Z,5.5
2018-04-29T03:54:52.092Z,5.8
2018-04-29T03:55:54.531Z,5.7
2018-04-29T03:56:56.960Z,5.4
2018-04-29T03:57:59.393Z,5.5
2018-04-29T03:59:01.842Z,5.5
2018-04-29T04:00:05.152Z,5.5
2018-04-29T04:01:07.599Z,5.6
2018-04-29T04:02:10.033Z,5.5
2018-04-29T04:03:12.466Z,5.5
2018-04-29T04:04:14.924Z,5.6
2018-04-29T04:05:17.732Z,5.6
2018-04-29T04:06:20.173Z,5.6
2018-04-29T04:07:22.890Z,5.6
2018-04-29T04:08:25.607Z,5.6
2018-04-29T04:09:28.048Z,5.5
2018-04-29T04:10:30.491Z,5.5
2018-04-29T04:11:33.212Z,5.6
2018-04-29T04:12:35.944Z,5.7
2018-04-29T04:13:38.374Z,5.5
2018-04-29T04:14:41.105Z,5.7
2018-04-29T04:15:43.839Z,5.6
2018-04-29T04:16:46.277Z,5.6
2018-04-29T04:17:48.717Z,5.6
2018-04-29T04:18:51.165Z,5.4
2018-04-29T04:19:53.602Z,5.7
2018-04-29T04:20:56.049Z,5.5
2018-04-29T04:21:58.484Z,5.6
2018-04-29T04:23:00.929Z,5.5
2018-04-29T04:24:03.652Z,5.6
2018-04-29T04:25:06.477Z,5.6
2018-04-29T04:26:08.907Z,5.7
2018-04-29T04:27:11.346Z,5.5
2018-04-29T04:28:13.793Z,5.6
2018-04-29T04:29:16.240Z,5.6
2018-04-29T04:30:18.666Z,5.6
2018-04-29T04:31:21.109Z,5.6
2018-04-29T04:32:23.554Z,5.6
2018-04-29T04:33:25.997Z,5.5
2018-04-29T04:34:28.788Z,5.5
2018-04-29T04:35:31.221Z,5.6
2018-04-29T04:36:33.939Z,5.5
2018-04-29T04:37:36.391Z,5.5
2018-04-29T04:38:38.832Z,5.6
2018-04-29T04:39:41.263Z,5.6
2018-04-29T04:40:43.996Z,5.7
2018-04-29T04:41:47.028Z,5.6
2018-04-29T04:42:49.468Z,5.7
2018-04-29T04:43:51.916Z,5.6
2018-04-29T04:44:54.343Z,5.6
2018-04-29T04:45:56.786Z,5.7
2018-04-29T04:46:59.233Z,5.5
2018-04-29T04:48:01.976Z,5.5
2018-04-29T04:49:04.987Z,5.7
2018-04-29T04:50:08.094Z,5.6
2018-04-29T04:51:10.522Z,5.6
2018-04-29T04:52:12.975Z,5.7
2018-04-29T04:53:15.790Z,5.7
2018-04-29T04:54:18.214Z,5.7
2018-04-29T04:55:20.951Z,5.6
2018-04-29T04:56:23.386Z,5.5
2018-04-29T04:57:25.834Z,5.5
2018-04-29T04:58:28.549Z,5.6
2018-04-29T04:59:30.981Z,5.6
2018-04-29T05:00:33.422Z,5.5
2018-04-29T05:01:35.858Z,5.5
2018-04-29T05:02:38.284Z,5.7
2018-04-29T05:03:40.737Z,5.6
2018-04-29T05:04:43.456Z,5.5
2018-04-29T05:05:46.193Z,5.5
2018-04-29T05:06:48.631Z,5.5
2018-04-29T05:07:51.075Z,5.5
2018-04-29T05:08:53.518Z,5.5
2018-04-29T05:09:56.255Z,5.7
2018-04-29T05:10:58.678Z,5.6
2018-04-29T05:12:01.108Z,5.6
2018-04-29T05:13:03.566Z,5.5
2018-04-29T05:14:06.000Z,5.5
2018-04-29T05:15:08.450Z,5.5
2018-04-29T05:16:11.566Z,5.4
2018-04-29T05:17:14.003Z,5.6
2018-04-29T05:18:16.449Z,5.6
2018-04-29T05:19:18.897Z,5.6
2018-04-29T05:20:21.629Z,5.7
2018-04-29T05:21:24.062Z,5.7
2018-04-29T05:22:26.787Z,5.6
2018-04-29T05:23:29.514Z,5.7
2018-04-29T05:24:31.960Z,5.6
2018-04-29T05:25:34.388Z,5.7
2018-04-29T05:26:36.836Z,5.6
2018-04-29T05:27:39.287Z,5.8
2018-04-29T05:28:41.723Z,5.7
2018-04-29T05:29:44.161Z,5.8
2018-04-29T05:30:46.884Z,5.7
2018-04-29T05:31:49.601Z,5.6
2018-04-29T05:32:52.335Z,5.7
2018-04-29T05:33:54.773Z,5.7
2018-04-29T05:34:57.220Z,5.6
2018-04-29T05:35:59.949Z,5.7
2018-04-29T05:37:02.675Z,5.7
2018-04-29T05:38:05.124Z,5.8
2018-04-29T05:39:07.561Z,5.7
2018-04-29T05:40:10.306Z,5.8
2018-04-29T05:41:12.741Z,5.8
2018-04-29T05:42:15.183Z,5.6
2018-04-29T05:43:17.923Z,5.7
2018-04-29T05:44:20.650Z,5.6
2018-04-29T05:45:23.090Z,5.7
2018-04-29T05:46:25.822Z,5.6
2018-04-29T05:47:28.257Z,5.7
2018-04-29T05:48:30.980Z,5.8
2018-04-29T05:49:33.728Z,5.9
2018-04-29T05:50:36.154Z,5.7
2018-04-29T05:51:38.599Z,5.7
2018-04-29T05:52:41.043Z,5.7
2018-04-29T05:53:43.481Z,5.6
2018-04-29T05:54:45.927Z,5.7
2018-04-29T05:55:48.363Z,5.8
2018-04-29T05:56:50.803Z,5.7
2018-04-29T05:57:53.256Z,5.8
2018-04-29T05:58:55.682Z,5.7
2018-04-29T05:59:58.703Z,5.8
2018-04-29T06:01:01.467Z,5.8
2018-04-29T06:02:03.905Z,5.7
2018-04-29T06:03:06.731Z,5.7
2018-04-29T06:04:09.515Z,5.9
2018-04-29T06:05:12.284Z,5.7
2018-04-29T06:06:14.729Z,5.7
2018-04-29T06:07:17.175Z,5.9
2018-04-29T06:08:19.602Z,5.8
2018-04-29T06:09:22.360Z,5.7
2018-04-29T06:10:24.805Z,5.7
2018-04-29T06:11:27.239Z,5.8
2018-04-29T06:12:29.981Z,5.7
2018-04-29T06:13:32.701Z,5.9
2018-04-29T06:14:35.137Z,5.7
2018-04-29T06:15:37.947Z,5.8
2018-04-29T06:16:40.305Z,5.7
2018-04-29T06:17:42.736Z,5.9
2018-04-29T06:18:45.180Z,5.8
2018-04-29T06:19:47.623Z,5.7
2018-04-29T06:20:50.070Z,5.6
2018-04-29T06:21:52.811Z,5.8
2018-04-29T06:22:55.538Z,5.8
2018-04-29T06:23:57.977Z,5.8
2018-04-29T06:25:00.703Z,5.7
2018-04-29T06:26:04.562Z,5.9
2018-04-29T06:27:07.394Z,5.7
2018-04-29T06:28:09.832Z,5.7
2018-04-29T06:29:12.282Z,5.7
2018-04-29T06:30:14.726Z,5.9
2018-04-29T06:31:17.171Z,5.8
2018-04-29T06:32:19.994Z,5.8
2018-04-29T06:33:22.447Z,5.8
2018-04-29T06:34:24.897Z,5.7
2018-04-29T06:35:27.336Z,5.7
2018-04-29T06:36:29.780Z,5.9
2018-04-29T06:37:32.219Z,5.8
2018-04-29T06:38:35.042Z,5.8
2018-04-29T06:39:37.489Z,5.8
2018-04-29T06:40:39.921Z,5.7
2018-04-29T06:41:42.374Z,5.9
2018-04-29T06:42:44.807Z,5.8
2018-04-29T06:43:47.557Z,5.8
2018-04-29T06:44:50.389Z,5.9
2018-04-29T06:45:53.109Z,5.8
2018-04-29T06:46:56.390Z,5.8
2018-04-29T06:47:59.047Z,6
2018-04-29T06:49:01.488Z,6
2018-04-29T06:50:04.221Z,5.8
2018-04-29T06:51:06.648Z,5.8
2018-04-29T06:52:09.088Z,5.8
2018-04-29T06:53:11.836Z,5.7
2018-04-29T06:54:14.272Z,5.7
2018-04-29T06:55:16.999Z,5.8
2018-04-29T06:56:20.026Z,5.9
2018-04-29T06:57:22.475Z,5.9
2018-04-29T06:58:25.195Z,5.9
2018-04-29T06:59:27.654Z,5.9
2018-04-29T07:00:30.093Z,5.9
2018-04-29T07:01:32.540Z,5.8
2018-04-29T07:02:34.977Z,5.9
2018-04-29T07:03:37.423Z,5.9
2018-04-29T07:04:40.247Z,5.7
2018-04-29T07:05:43.006Z,5.9
2018-04-29T07:06:45.437Z,5.8
2018-04-29T07:07:48.487Z,5.9
2018-04-29T07:08:51.513Z,5.9
2018-04-29T07:09:53.955Z,5.9
2018-04-29T07:10:56.401Z,5.8
2018-04-29T07:11:58.846Z,5.8
2018-04-29T07:13:01.577Z,5.8
2018-04-29T07:14:04.083Z,5.8
2018-04-29T07:15:06.466Z,5.8
2018-04-29T07:16:09.511Z,5.8
2018-04-29T07:17:11.937Z,5.8
2018-04-29T07:18:14.389Z,6
2018-04-29T07:19:16.838Z,5.9
2018-04-29T07:20:19.286Z,5.7
2018-04-29T07:21:21.724Z,5.7
2018-04-29T07:22:24.558Z,5.8
2018-04-29T07:23:27.381Z,5.9
2018-04-29T07:24:29.833Z,5.9
2018-04-29T07:25:32.288Z,5.8
2018-04-29T07:26:35.109Z,5.8
2018-04-29T07:27:37.571Z,5.7
2018-04-29T07:28:40.055Z,5.8
2018-04-29T07:29:42.875Z,5.7
2018-04-29T07:30:45.326Z,5.9
2018-04-29T07:31:48.084Z,5.8
2018-04-29T07:32:50.525Z,6
2018-04-29T07:33:52.971Z,5.8
2018-04-29T07:34:55.421Z,5.9
2018-04-29T07:35:57.876Z,6
2018-04-29T07:37:00.615Z,5.8
2018-04-29T07:38:03.482Z,5.8
2018-04-29T07:39:05.919Z,6
2018-04-29T07:40:08.869Z,5.8
2018-04-29T07:41:11.277Z,5.9
2018-04-29T07:42:13.718Z,5.8
2018-04-29T07:43:16.166Z,5.8
2018-04-29T07:44:18.623Z,6
2018-04-29T07:45:21.078Z,5.8
2018-04-29T07:46:23.594Z,6
2018-04-29T07:47:25.988Z,5.9
2018-04-29T07:48:28.434Z,5.8
2018-04-29T07:49:30.887Z,5.8
2018-04-29T07:50:33.632Z,5.8
2018-04-29T07:51:36.077Z,6
2018-04-29T07:52:39.034Z,5.9
2018-04-29T07:53:41.862Z,5.9
2018-04-29T07:54:44.320Z,5.9
2018-04-29T07:55:46.768Z,6
2018-04-29T07:56:49.493Z,5.9
2018-04-29T07:57:51.952Z,5.9
2018-04-29T07:58:54.395Z,6
2018-04-29T07:59:56.840Z,6.1
2018-04-29T08:00:59.573Z,5.9
2018-04-29T08:02:02.026Z,5.9
2018-04-29T08:03:04.756Z,5.9
2018-04-29T08:04:07.594Z,6
2018-04-29T08:05:10.703Z,6
2018-04-29T08:06:13.154Z,6.1
2018-04-29T08:07:15.614Z,6
2018-04-29T08:08:18.063Z,6
2018-04-29T08:09:20.511Z,6
2018-04-29T08:10:23.337Z,5.9
2018-04-29T08:11:26.390Z,6
2018-04-29T08:12:28.842Z,5.9
2018-04-29T08:13:31.290Z,6
2018-04-29T08:14:34.025Z,6
2018-04-29T08:15:36.574Z,6
2018-04-29T08:16:39.599Z,6
2018-04-29T08:17:42.038Z,6.2
2018-04-29T08:18:44.495Z,6
2018-04-29T08:19:46.944Z,6
2018-04-29T08:20:49.387Z,6.1
2018-04-29T08:21:52.148Z,5.9
2018-04-29T08:22:54.599Z,6
2018-04-29T08:23:57.329Z,6
2018-04-29T08:24:59.774Z,6
2018-04-29T08:26:02.220Z,6
2018-04-29T08:27:04.673Z,6
2018-04-29T08:28:07.114Z,6
2018-04-29T08:29:09.574Z,5.9
2018-04-29T08:30:12.707Z,6
2018-04-29T08:31:15.138Z,6.1
2018-04-29T08:32:17.594Z,6.1
2018-04-29T08:33:20.043Z,6.1
2018-04-29T08:34:22.789Z,6.1
2018-04-29T08:35:25.243Z,6.2
2018-04-29T08:36:27.686Z,6.1
2018-04-29T08:37:30.137Z,6.1
2018-04-29T08:38:32.594Z,6.1
2018-04-29T08:39:35.041Z,6
2018-04-29T08:40:37.496Z,6.1
2018-04-29T08:41:40.235Z,6.1
2018-04-29T08:42:42.968Z,6.1
2018-04-29T08:43:45.431Z,6.1
2018-04-29T08:44:47.870Z,6.1
2018-04-29T08:45:50.319Z,6.1
2018-04-29T08:46:53.048Z,6.1
2018-04-29T08:47:55.499Z,6.2
2018-04-29T08:48:57.949Z,6.2
2018-04-29T08:50:00.406Z,6.1
2018-04-29T08:51:02.854Z,6.1
2018-04-29T08:52:05.303Z,6.2
2018-04-29T08:53:07.746Z,6.2
2018-04-29T08:54:10.199Z,6.2
2018-04-29T08:55:12.940Z,6.1
2018-04-29T08:56:15.678Z,6.2
2018-04-29T08:57:18.142Z,6.2
2018-04-29T08:58:20.971Z,6.2
2018-04-29T08:59:23.427Z,6.4
2018-04-29T09:00:25.889Z,6.2
2018-04-29T09:01:28.347Z,6.2
2018-04-29T09:02:30.790Z,6.2
2018-04-29T09:03:33.682Z,6.2
2018-04-29T09:04:36.449Z,6.3
2018-04-29T09:05:39.187Z,6.1
2018-04-29T09:06:41.756Z,6.2
2018-04-29T09:07:44.584Z,6.2
2018-04-29T09:08:47.417Z,6.2
2018-04-29T09:09:49.967Z,6.3
2018-04-29T09:10:53.098Z,6.4
2018-04-29T09:11:55.611Z,6.2
2018-04-29T09:12:58.072Z,6.2
2018-04-29T09:14:00.678Z,6.1
2018-04-29T09:15:03.427Z,6.2
2018-04-29T09:16:06.356Z,6.3
2018-04-29T09:17:09.097Z,6.3
2018-04-29T09:18:11.844Z,6.5
2018-04-29T09:19:14.584Z,6.4
2018-04-29T09:20:17.044Z,6.4
2018-04-29T09:21:20.188Z,6.3
2018-04-29T09:22:22.690Z,6.4
2018-04-29T09:23:25.147Z,6.3
2018-04-29T09:24:37.963Z,6.4
2018-04-29T09:25:43.131Z,6.4
2018-04-29T09:26:45.710Z,6.4
2018-04-29T09:27:48.877Z,6.3
2018-04-29T09:28:51.727Z,6.4
2018-04-29T09:29:54.183Z,6.4
2018-04-29T09:30:56.633Z,6.5
2018-04-29T09:32:05.425Z,6.3
2018-04-29T09:33:07.880Z,6.4
2018-04-29T09:34:10.489Z,6.3
2018-04-29T09:35:12.950Z,6.4
2018-04-29T09:36:15.483Z,6.7
2018-04-29T09:37:18.223Z,6.4
2018-04-29T09:38:20.759Z,6.4
2018-04-29T09:39:23.225Z,6.5
2018-04-29T09:40:25.974Z,6.5
2018-04-29T09:41:28.465Z,6.4
2018-04-29T09:42:31.836Z,6.4
2018-04-29T09:43:34.598Z,6.4
2018-04-29T09:44:40.991Z,6.4
2018-04-29T09:45:46.997Z,6.5
2018-04-29T09:46:53.750Z,6.5
2018-04-29T09:48:01.634Z,6.4
2018-04-29T09:49:08.749Z,6.7
2018-04-29T09:50:13.496Z,6.6
2018-04-29T09:52:19.214Z,6.6
2018-04-29T09:53:24.266Z,6.8
2018-04-29T09:54:30.334Z,6.4
2018-04-29T09:56:25.313Z,6.7
2018-04-29T09:57:43.082Z,6.6
2018-04-29T09:58:58.545Z,6.5
2018-04-29T10:00:52.356Z,6.4
2018-04-29T10:01:54.788Z,6.5
2018-04-29T10:02:57.353Z,6.8
2018-04-29T10:04:00.419Z,7.2
2018-04-29T10:05:02.947Z,7.2
2018-04-29T10:06:05.510Z,6.7
2018-04-29T10:07:08.269Z,7.2
2018-04-29T10:08:11.643Z,6.8
2018-04-29T10:09:15.057Z,7
2018-04-29T10:10:18.327Z,7.1
2018-04-29T10:11:22.398Z,7.2
2018-04-29T10:12:24.918Z,6.9
2018-04-29T10:13:27.700Z,7
2018-04-29T10:14:30.188Z,7.2
2018-04-29T10:15:32.833Z,7.5
2018-04-29T10:16:36.268Z,7.3
2018-04-29T10:17:38.748Z,7.2
2018-04-29T10:18:41.256Z,7.5
2018-04-29T10:19:43.733Z,7.5
2018-04-29T10:20:46.211Z,7.2
2018-04-29T10:21:49.068Z,7.2
2018-04-29T10:22:51.967Z,7.3
2018-04-29T10:23:54.444Z,7.4
2018-04-29T10:24:56.939Z,7.6
2018-04-29T10:25:59.422Z,7.4
2018-04-29T10:27:01.898Z,7.4
2018-04-29T10:28:04.359Z,7.5
2018-04-29T10:29:09.310Z,7.4
2018-04-29T10:30:14.481Z,8
2018-04-29T10:31:20.675Z,7.5
2018-04-29T10:32:27.181Z,7.4
2018-04-29T10:33:32.878Z,7.7
2018-04-29T10:34:35.850Z,7.9
2018-04-29T10:35:42.199Z,7.3
2018-04-29T10:36:48.564Z,7.7
2018-04-29T10:37:53.619Z,7.5
2018-04-29T10:38:58.221Z,7.8
2018-04-29T10:40:02.414Z,7.5
2018-04-29T10:41:07.324Z,7.7
2018-04-29T10:42:11.525Z,7.3
2018-04-29T10:43:15.325Z,7.8
2018-04-29T10:44:20.981Z,7.4
2018-04-29T10:45:24.157Z,7.8
2018-04-29T10:46:29.397Z,8.1
2018-04-29T10:47:34.085Z,8
2018-04-29T10:48:38.384Z,7.6
2018-04-29T10:49:44.684Z,7.5
2018-04-29T10:50:48.854Z,7.8
2018-04-29T10:51:53.146Z,8
2018-04-29T10:52:58.910Z,8
2018-04-29T10:54:04.239Z,8.3
2018-04-29T10:55:07.652Z,8.1
2018-04-29T10:56:11.471Z,7.7
2018-04-29T10:57:15.571Z,7.7
2018-04-29T10:58:19.769Z,7.7
2018-04-29T10:59:24.291Z,7.6
2018-04-29T11:00:29.137Z,7.8
2018-04-29T11:01:35.898Z,7.7
2018-04-29T11:02:40.290Z,7.8
2018-04-29T11:03:44.727Z,8
2018-04-29T11:04:51.779Z,7.8
2018-04-29T11:05:59.454Z,8.5
2018-04-29T11:07:07.981Z,8.2
2018-04-29T11:08:14.886Z,7.9
2018-04-29T11:09:19.678Z,7.8
2018-04-29T11:10:26.002Z,8.4
2018-04-29T11:11:32.433Z,7.9
2018-04-29T11:12:38.641Z,7.6
2018-04-29T11:13:45.137Z,7.7
2018-04-29T11:14:47.668Z,7.8
2018-04-29T11:15:50.167Z,7.6
2018-04-29T11:16:52.634Z,7.9
2018-04-29T11:17:55.090Z,7.5
2018-04-29T11:18:57.540Z,7.9
2018-04-29T11:20:00.001Z,7.5
2018-04-29T11:21:03.153Z,7.9
2018-04-29T11:22:05.641Z,8
2018-04-29T11:23:08.075Z,7.9
2018-04-29T11:24:10.911Z,7.8
2018-04-29T11:25:13.372Z,7.4
2018-04-29T11:26:15.836Z,7.8
2018-04-29T11:27:18.287Z,7.7
2018-04-29T11:28:20.762Z,7.7
2018-04-29T11:29:23.504Z,7.9
2018-04-29T11:30:25.967Z,7.9
2018-04-29T11:31:28.430Z,7.5
2018-04-29T11:32:30.894Z,8.1
2018-04-29T11:33:33.397Z,8.1
2018-04-29T11:34:35.872Z,7.9
2018-04-29T11:35:38.348Z,8.1
2018-04-29T11:36:41.238Z,8.2
2018-04-29T11:37:43.751Z,7.7
2018-04-29T11:38:46.561Z,7.6
2018-04-29T11:39:49.351Z,7.9
2018-04-29T11:40:52.402Z,7.8
2018-04-29T11:41:55.084Z,8
2018-04-29T11:42:57.708Z,8.1
2018-04-29T11:44:00.437Z,7.8
2018-04-29T11:45:03.126Z,7.9
2018-04-29T11:46:05.824Z,7.5
2018-04-29T11:47:08.980Z,7.9
2018-04-29T11:48:13.840Z,7.7
2018-04-29T11:49:17.320Z,7.4
2018-04-29T11:50:21.394Z,8.2
2018-04-29T11:51:24.878Z,7.9
2018-04-29T11:52:29.880Z,7.5
2018-04-29T11:53:34.160Z,8
2018-04-29T11:54:37.121Z,7.5
2018-04-29T11:55:41.613Z,8
2018-04-29T11:56:46.330Z,7.6
2018-04-29T11:57:49.461Z,7.3
2018-04-29T11:58:52.551Z,8.3
2018-04-29T11:59:58.327Z,7.4
2018-04-29T12:01:01.475Z,7.9
2018-04-29T12:02:05.350Z,7.6
2018-04-29T12:03:11.069Z,7.6
2018-04-29T12:04:16.536Z,7.6
2018-04-29T12:05:21.839Z,7.1
2018-04-29T12:06:26.133Z,7.9
2018-04-29T12:07:31.797Z,7.4
2018-04-29T12:08:35.729Z,7.6
2018-04-29T12:09:41.219Z,7.6
2018-04-29T12:10:46.336Z,7.4
2018-04-29T12:11:50.878Z,7.6
2018-04-29T12:12:57.565Z,7.6
2018-04-29T12:14:01.954Z,7.4
2018-04-29T12:15:06.875Z,7.5
2018-04-29T12:16:12.693Z,7.5
2018-04-29T12:17:19.535Z,7.5
2018-04-29T12:18:27.209Z,7.5
2018-04-29T12:19:34.947Z,7.6
2018-04-29T12:20:42.483Z,7.5
2018-04-29T12:21:48.485Z,8
2018-04-29T12:22:54.617Z,7.6
2018-04-29T12:24:01.104Z,8
2018-04-29T12:25:04.968Z,7.9
2018-04-29T12:26:07.435Z,7.5
2018-04-29T12:27:09.886Z,7.8
2018-04-29T12:28:12.359Z,8.1
2018-04-29T12:29:14.819Z,8
2018-04-29T12:30:17.314Z,7.8
2018-04-29T12:31:20.261Z,7.9
2018-04-29T12:32:23.053Z,7.7
2018-04-29T12:33:25.502Z,7.6
2018-04-29T12:34:27.951Z,7.6
2018-04-29T12:35:30.422Z,8.1
2018-04-29T12:36:32.889Z,8.1
2018-04-29T12:37:35.353Z,7.6
2018-04-29T12:38:37.820Z,7.6
2018-04-29T12:39:40.285Z,7.8
2018-04-29T12:40:42.743Z,7.3
2018-04-29T12:41:45.614Z,7.4
2018-04-29T12:42:48.764Z,7.9
2018-04-29T12:43:51.608Z,7.5
2018-04-29T12:44:54.075Z,7.4
2018-04-29T12:45:56.539Z,7.2
2018-04-29T12:46:59.287Z,7.3
2018-04-29T12:48:01.757Z,7.8
2018-04-29T12:49:04.225Z,7.4
2018-04-29T12:50:06.691Z,7.6
2018-04-29T12:51:09.150Z,7.1
2018-04-29T12:52:11.680Z,7.5
2018-04-29T12:53:14.074Z,7.2
2018-04-29T12:54:16.530Z,7.6
2018-04-29T12:55:18.986Z,7.3
2018-04-29T12:56:21.455Z,7.3
2018-04-29T12:57:24.201Z,7.9
2018-04-29T12:58:27.258Z,7.8
2018-04-29T12:59:29.707Z,7.5
2018-04-29T13:00:32.169Z,7.4
2018-04-29T13:01:34.622Z,7.2
2018-04-29T13:02:37.082Z,7.6
2018-04-29T13:03:39.923Z,7.2
2018-04-29T13:04:42.790Z,7.1
2018-04-29T13:05:45.275Z,7.5
2018-04-29T13:06:47.984Z,7.1
2018-04-29T13:07:50.475Z,7.5
2018-04-29T13:08:52.920Z,7.1
2018-04-29T13:09:55.377Z,7.6
2018-04-29T13:10:58.548Z,7.2
2018-04-29T13:12:00.998Z,7.5
2018-04-29T13:13:03.464Z,7.5
2018-04-29T13:14:05.928Z,7.6
2018-04-29T13:15:08.388Z,7.2
2018-04-29T13:16:11.132Z,7.4
2018-04-29T13:17:13.601Z,7.2
2018-04-29T13:18:16.050Z,8
2018-04-29T13:19:18.522Z,7.7
2018-04-29T13:20:20.981Z,7.8
2018-04-29T13:21:23.434Z,7.4
2018-04-29T13:22:26.293Z,7.6
2018-04-29T13:23:29.137Z,7.7
2018-04-29T13:24:31.620Z,7.8
2018-04-29T13:25:34.694Z,7.8
2018-04-29T13:26:37.143Z,8
2018-04-29T13:27:39.930Z,7.6
2018-04-29T13:28:42.396Z,7.6
2018-04-29T13:29:44.860Z,7.8
2018-04-29T13:30:47.312Z,8.5
2018-04-29T13:31:49.851Z,7.8
2018-04-29T13:32:54.390Z,8
2018-04-29T13:33:57.786Z,7.6
2018-04-29T13:35:00.543Z,8.1
2018-04-29T13:36:03.599Z,7.9
2018-04-29T13:37:06.070Z,7.7
2018-04-29T13:38:08.918Z,7.7
2018-04-29T13:39:11.379Z,8.6
2018-04-29T13:40:13.863Z,7.7
2018-04-29T13:41:16.327Z,8
2018-04-29T13:42:19.254Z,7.8
2018-04-29T13:43:21.655Z,8.1
2018-04-29T13:44:24.114Z,8.4
2018-04-29T13:45:26.595Z,7.9
2018-04-29T13:46:29.061Z,8.2
2018-04-29T13:47:31.803Z,8.2
2018-04-29T13:48:34.280Z,7.9
2018-04-29T13:49:36.732Z,7.9
2018-04-29T13:50:39.510Z,8
2018-04-29T13:51:41.982Z,8.3
2018-04-29T13:52:44.437Z,7.9
2018-04-29T13:53:46.914Z,8
2018-04-29T13:54:49.384Z,8.2
2018-04-29T13:55:51.850Z,8.1
2018-04-29T13:56:54.901Z,8.1
2018-04-29T13:57:57.367Z,8.1
2018-04-29T13:59:00.123Z,7.9
2018-04-29T14:00:02.614Z,8.2
2018-04-29T14:01:05.078Z,8.1
2018-04-29T14:02:07.547Z,8.1
2018-04-29T14:03:10.007Z,8.1
2018-04-29T14:04:12.771Z,8
2018-04-29T14:05:15.239Z,8
2018-04-29T14:06:17.701Z,8.4
2018-04-29T14:07:20.178Z,8
2018-04-29T14:08:22.638Z,8.2
2018-04-29T14:09:25.781Z,8
2018-04-29T14:10:28.544Z,8.2
2018-04-29T14:11:31.321Z,8
2018-04-29T14:12:34.151Z,8.6
2018-04-29T14:13:37.275Z,8.4
2018-04-29T14:14:40.112Z,8.2
2018-04-29T14:15:42.588Z,8.3
2018-04-29T14:16:45.319Z,8.2
2018-04-29T14:17:47.789Z,8.1
2018-04-29T14:18:50.254Z,8.2
2018-04-29T14:19:53.748Z,8
2018-04-29T14:20:56.173Z,8.6
2018-04-29T14:21:58.635Z,8.2
2018-04-29T14:23:01.377Z,8.1
2018-04-29T14:24:03.855Z,8.4
2018-04-29T14:25:06.714Z,8.1
2018-04-29T14:26:09.172Z,8.2
2018-04-29T14:27:11.640Z,8.1
2018-04-29T14:28:14.111Z,8.7
2018-04-29T14:29:16.576Z,8.2
2018-04-29T14:30:19.629Z,8.1
2018-04-29T14:31:22.134Z,8.2
2018-04-29T14:32:24.544Z,8.2